sensor_id;sensor_type;location;lat;lon;timestamp;P1;durP1;ratioP1;P2;durP2;ratioP2
15843;SDS011;50807;52.436;13.346;2023-04-29T00:00:17;3.38;;;3.08;;
15843;SDS011;50807;52.436;13.346;2023-04-29T00:00:49;3.55;;;3.25;;
15843;SDS011;50807;52.436;13.346;2023-04-29T00:01:20;3.87;;;3.57;;
15843;SDS011;50807;52.436;13.346;2023-04-29T00:01:51;3.27;;;2.97;;
15843;SDS011;50807;52.436;13.346;2023-04-29T00:02:29;3.53;;;3.10;;
15843;SDS011;50807;52.436;13.346;2023-04-29T00:03:00;2.92;;;2.70;;
15843;SDS011;50807;52.436;13.346;2023-04-29T00:03:31;3.85;;;3.05;;
15843;SDS011;50807;52.436;13.346;2023-04-29T00:04:03;3.50;;;3.20;;
15843;SDS011;50807;52.436;13.346;2023-04-29T00:04:34;4.22;;;3.83;;
15843;SDS011;50807;52.436;13.346;2023-04-29T00:05:05;4.10;;;3.70;;
15843;SDS011;50807;52.436;13.346;2023-04-29T00:05:37;3.67;;;3.38;;
15843;SDS011;50807;52.436;13.346;2023-04-29T00:06:09;4.03;;;3.15;;
15843;SDS011;50807;52.436;13.346;2023-04-29T00:06:40;3.95;;;3.20;;
15843;SDS011;50807;52.436;13.346;2023-04-29T00:07:12;3.45;;;3.00;;
15843;SDS011;50807;52.436;13.346;2023-04-29T00:07:44;3.40;;;3.10;;
15843;SDS011;50807;52.436;13.346;2023-04-29T00:08:15;3.57;;;3.27;;
15843;SDS011;50807;52.436;13.346;2023-04-29T00:08:47;3.33;;;3.03;;
15843;SDS011;50807;52.436;13.346;2023-04-29T00:09:18;3.58;;;3.10;;
15843;SDS011;50807;52.436;13.346;2023-04-29T00:09:51;3.47;;;3.17;;
15843;SDS011;50807;52.436;13.346;2023-04-29T00:10:22;3.37;;;3.07;;
15843;SDS011;50807;52.436;13.346;2023-04-29T00:10:53;3.30;;;3.00;;
15843;SDS011;50807;52.436;13.346;2023-04-29T00:11:25;3.70;;;3.38;;
15843;SDS011;50807;52.436;13.346;2023-04-29T00:11:55;2.67;;;2.47;;
15843;SDS011;50807;52.436;13.346;2023-04-29T00:12:27;3.40;;;3.10;;
15843;SDS011;50807;52.436;13.346;2023-04-29T00:13:00;3.50;;;3.20;;
15843;SDS011;50807;52.436;13.346;2023-04-29T00:13:31;4.93;;;3.43;;
15843;SDS011;50807;52.436;13.346;2023-04-29T00:14:02;3.57;;;3.27;;
15843;SDS011;50807;52.436;13.346;2023-04-29T00:14:34;3.70;;;3.30;;
15843;SDS011;50807;52.436;13.346;2023-04-29T00:15:05;3.47;;;3.17;;
15843;SDS011;50807;52.436;13.346;2023-04-29T00:15:38;3.67;;;3.05;;
15843;SDS011;50807;52.436;13.346;2023-04-29T00:16:11;3.85;;;3.55;;
15843;SDS011;50807;52.436;13.346;2023-04-29T00:16:42;3.75;;;3.25;;
15843;SDS011;50807;52.436;13.346;2023-04-29T00:17:13;3.80;;;3.50;;
15843;SDS011;50807;52.436;13.346;2023-04-29T00:17:46;3.45;;;3.15;;
15843;SDS011;50807;52.436;13.346;2023-04-29T00:18:18;3.88;;;3.28;;
15843;SDS011;50807;52.436;13.346;2023-04-29T00:18:49;3.80;;;3.20;;
15843;SDS011;50807;52.436;13.346;2023-04-29T00:19:20;2.90;;;2.70;;
15843;SDS011;50807;52.436;13.346;2023-04-29T00:19:50;3.70;;;3.40;;
15843;SDS011;50807;52.436;13.346;2023-04-29T00:20:22;3.72;;;3.42;;
15843;SDS011;50807;52.436;13.346;2023-04-29T00:20:53;4.30;;;3.83;;
15843;SDS011;50807;52.436;13.346;2023-04-29T00:21:24;3.67;;;2.80;;
15843;SDS011;50807;52.436;13.346;2023-04-29T00:21:56;4.20;;;3.45;;
15843;SDS011;50807;52.436;13.346;2023-04-29T00:22:27;4.10;;;3.73;;
15843;SDS011;50807;52.436;13.346;2023-04-29T00:22:59;3.67;;;3.38;;
15843;SDS011;50807;52.436;13.346;2023-04-29T00:23:31;3.08;;;2.88;;
15843;SDS011;50807;52.436;13.346;2023-04-29T00:24:02;3.70;;;3.40;;
15843;SDS011;50807;52.436;13.346;2023-04-29T00:24:33;3.65;;;3.35;;
15843;SDS011;50807;52.436;13.346;2023-04-29T00:25:06;3.58;;;3.28;;
15843;SDS011;50807;52.436;13.346;2023-04-29T00:25:38;3.72;;;3.10;;
15843;SDS011;50807;52.436;13.346;2023-04-29T00:26:09;3.30;;;3.00;;
15843;SDS011;50807;52.436;13.346;2023-04-29T00:26:40;4.70;;;3.28;;
15843;SDS011;50807;52.436;13.346;2023-04-29T00:27:11;3.63;;;3.33;;
15843;SDS011;50807;52.436;13.346;2023-04-29T00:27:42;3.23;;;3.03;;
15843;SDS011;50807;52.436;13.346;2023-04-29T00:28:14;3.75;;;3.45;;
15843;SDS011;50807;52.436;13.346;2023-04-29T00:28:45;3.50;;;3.20;;
15843;SDS011;50807;52.436;13.346;2023-04-29T00:29:16;3.00;;;2.80;;
15843;SDS011;50807;52.436;13.346;2023-04-29T00:29:48;3.00;;;2.80;;
15843;SDS011;50807;52.436;13.346;2023-04-29T00:30:19;4.30;;;3.57;;
15843;SDS011;50807;52.436;13.346;2023-04-29T00:30:49;4.03;;;3.30;;
15843;SDS011;50807;52.436;13.346;2023-04-29T00:31:20;3.73;;;3.10;;
15843;SDS011;50807;52.436;13.346;2023-04-29T00:31:52;3.20;;;2.92;;
15843;SDS011;50807;52.436;13.346;2023-04-29T00:32:23;4.13;;;3.20;;
15843;SDS011;50807;52.436;13.346;2023-04-29T00:32:55;3.50;;;3.20;;
15843;SDS011;50807;52.436;13.346;2023-04-29T00:33:27;3.55;;;3.25;;
15843;SDS011;50807;52.436;13.346;2023-04-29T00:33:58;3.80;;;3.50;;
15843;SDS011;50807;52.436;13.346;2023-04-29T00:34:29;3.30;;;3.00;;
15843;SDS011;50807;52.436;13.346;2023-04-29T00:35:00;3.87;;;3.00;;
15843;SDS011;50807;52.436;13.346;2023-04-29T00:35:32;3.40;;;3.10;;
15843;SDS011;50807;52.436;13.346;2023-04-29T00:36:04;3.47;;;3.25;;
15843;SDS011;50807;52.436;13.346;2023-04-29T00:36:35;3.70;;;3.40;;
15843;SDS011;50807;52.436;13.346;2023-04-29T00:37:07;3.85;;;3.55;;
15843;SDS011;50807;52.436;13.346;2023-04-29T00:37:38;3.80;;;3.50;;
15843;SDS011;50807;52.436;13.346;2023-04-29T00:38:09;3.50;;;3.20;;
15843;SDS011;50807;52.436;13.346;2023-04-29T00:38:41;3.92;;;3.55;;
15843;SDS011;50807;52.436;13.346;2023-04-29T00:39:12;3.78;;;3.03;;
15843;SDS011;50807;52.436;13.346;2023-04-29T00:39:43;3.57;;;3.27;;
15843;SDS011;50807;52.436;13.346;2023-04-29T00:40:14;3.28;;;3.08;;
15843;SDS011;50807;52.436;13.346;2023-04-29T00:40:46;3.60;;;3.30;;
15843;SDS011;50807;52.436;13.346;2023-04-29T00:41:17;3.72;;;3.42;;
15843;SDS011;50807;52.436;13.346;2023-04-29T00:41:49;3.60;;;3.30;;
15843;SDS011;50807;52.436;13.346;2023-04-29T00:42:20;3.70;;;3.40;;
15843;SDS011;50807;52.436;13.346;2023-04-29T00:42:51;4.20;;;3.80;;
15843;SDS011;50807;52.436;13.346;2023-04-29T00:43:23;3.67;;;3.38;;
15843;SDS011;50807;52.436;13.346;2023-04-29T00:43:54;3.67;;;3.37;;
15843;SDS011;50807;52.436;13.346;2023-04-29T00:44:25;3.80;;;3.50;;
15843;SDS011;50807;52.436;13.346;2023-04-29T00:44:57;3.67;;;3.37;;
15843;SDS011;50807;52.436;13.346;2023-04-29T00:45:29;3.60;;;3.40;;
15843;SDS011;50807;52.436;13.346;2023-04-29T00:45:59;3.73;;;3.43;;
15843;SDS011;50807;52.436;13.346;2023-04-29T00:46:30;3.87;;;3.57;;
15843;SDS011;50807;52.436;13.346;2023-04-29T00:47:02;3.83;;;3.53;;
15843;SDS011;50807;52.436;13.346;2023-04-29T00:47:33;3.50;;;3.20;;
15843;SDS011;50807;52.436;13.346;2023-04-29T00:48:06;3.83;;;3.45;;
15843;SDS011;50807;52.436;13.346;2023-04-29T00:48:38;3.40;;;3.10;;
15843;SDS011;50807;52.436;13.346;2023-04-29T00:49:10;3.92;;;3.63;;
15843;SDS011;50807;52.436;13.346;2023-04-29T00:49:43;3.60;;;3.30;;
15843;SDS011;50807;52.436;13.346;2023-04-29T00:50:15;3.53;;;3.30;;
15843;SDS011;50807;52.436;13.346;2023-04-29T00:50:46;3.93;;;3.63;;
15843;SDS011;50807;52.436;13.346;2023-04-29T00:51:20;3.60;;;3.30;;
15843;SDS011;50807;52.436;13.346;2023-04-29T00:51:52;4.00;;;3.42;;
15843;SDS011;50807;52.436;13.346;2023-04-29T00:52:27;3.95;;;3.53;;
15843;SDS011;50807;52.436;13.346;2023-04-29T00:53:00;3.72;;;3.38;;
15843;SDS011;50807;52.436;13.346;2023-04-29T00:53:32;3.92;;;3.60;;
15843;SDS011;50807;52.436;13.346;2023-04-29T00:54:04;3.60;;;3.30;;
15843;SDS011;50807;52.436;13.346;2023-04-29T00:54:36;4.28;;;3.40;;
15843;SDS011;50807;52.436;13.346;2023-04-29T00:55:09;3.70;;;3.47;;
15843;SDS011;50807;52.436;13.346;2023-04-29T00:55:42;4.00;;;3.70;;
15843;SDS011;50807;52.436;13.346;2023-04-29T00:56:15;4.18;;;3.78;;
15843;SDS011;50807;52.436;13.346;2023-04-29T00:56:46;3.92;;;3.63;;
15843;SDS011;50807;52.436;13.346;2023-04-29T00:57:21;4.00;;;3.70;;
15843;SDS011;50807;52.436;13.346;2023-04-29T00:57:52;4.93;;;3.80;;
15843;SDS011;50807;52.436;13.346;2023-04-29T00:58:23;4.30;;;4.00;;
15843;SDS011;50807;52.436;13.346;2023-04-29T00:59:02;3.90;;;3.60;;
15843;SDS011;50807;52.436;13.346;2023-04-29T00:59:33;3.83;;;3.50;;
15843;SDS011;50807;52.436;13.346;2023-04-29T01:00:06;3.95;;;3.65;;
15843;SDS011;50807;52.436;13.346;2023-04-29T01:00:39;3.88;;;3.45;;
15843;SDS011;50807;52.436;13.346;2023-04-29T01:01:11;4.00;;;3.70;;
15843;SDS011;50807;52.436;13.346;2023-04-29T01:01:43;4.10;;;3.78;;
15843;SDS011;50807;52.436;13.346;2023-04-29T01:02:14;3.77;;;3.50;;
15843;SDS011;50807;52.436;13.346;2023-04-29T01:02:46;4.35;;;3.95;;
15843;SDS011;50807;52.436;13.346;2023-04-29T01:03:21;4.05;;;3.75;;
15843;SDS011;50807;52.436;13.346;2023-04-29T01:03:52;4.32;;;4.03;;
15843;SDS011;50807;52.436;13.346;2023-04-29T01:04:24;3.80;;;3.50;;
15843;SDS011;50807;52.436;13.346;2023-04-29T01:04:56;4.05;;;3.75;;
15843;SDS011;50807;52.436;13.346;2023-04-29T01:05:27;4.17;;;3.87;;
15843;SDS011;50807;52.436;13.346;2023-04-29T01:06:01;4.57;;;4.20;;
15843;SDS011;50807;52.436;13.346;2023-04-29T01:06:48;3.53;;;3.33;;
15843;SDS011;50807;52.436;13.346;2023-04-29T01:07:32;4.05;;;3.75;;
15843;SDS011;50807;52.436;13.346;2023-04-29T01:08:15;4.22;;;3.80;;
15843;SDS011;50807;52.436;13.346;2023-04-29T01:09:08;4.07;;;3.67;;
15843;SDS011;50807;52.436;13.346;2023-04-29T01:10:03;5.18;;;3.60;;
15843;SDS011;50807;52.436;13.346;2023-04-29T01:10:44;4.28;;;3.88;;
15843;SDS011;50807;52.436;13.346;2023-04-29T01:11:23;4.38;;;3.97;;
15843;SDS011;50807;52.436;13.346;2023-04-29T01:12:05;4.63;;;3.90;;
15843;SDS011;50807;52.436;13.346;2023-04-29T01:12:53;3.70;;;3.40;;
15843;SDS011;50807;52.436;13.346;2023-04-29T01:13:33;4.05;;;3.70;;
15843;SDS011;50807;52.436;13.346;2023-04-29T01:14:13;4.25;;;3.85;;
15843;SDS011;50807;52.436;13.346;2023-04-29T01:14:47;4.35;;;3.95;;
15843;SDS011;50807;52.436;13.346;2023-04-29T01:15:31;4.18;;;3.80;;
15843;SDS011;50807;52.436;13.346;2023-04-29T01:16:15;4.18;;;3.72;;
15843;SDS011;50807;52.436;13.346;2023-04-29T01:16:55;4.32;;;3.92;;
15843;SDS011;50807;52.436;13.346;2023-04-29T01:17:38;4.45;;;4.05;;
15843;SDS011;50807;52.436;13.346;2023-04-29T01:18:14;4.65;;;4.07;;
15843;SDS011;50807;52.436;13.346;2023-04-29T01:18:56;4.30;;;4.00;;
15843;SDS011;50807;52.436;13.346;2023-04-29T01:19:33;4.40;;;4.00;;
15843;SDS011;50807;52.436;13.346;2023-04-29T01:20:14;4.55;;;4.15;;
15843;SDS011;50807;52.436;13.346;2023-04-29T01:20:47;4.10;;;3.80;;
15843;SDS011;50807;52.436;13.346;2023-04-29T01:21:19;4.72;;;4.32;;
15843;SDS011;50807;52.436;13.346;2023-04-29T01:21:50;4.55;;;4.15;;
15843;SDS011;50807;52.436;13.346;2023-04-29T01:22:22;4.80;;;4.40;;
15843;SDS011;50807;52.436;13.346;2023-04-29T01:22:54;5.07;;;4.68;;
15843;SDS011;50807;52.436;13.346;2023-04-29T01:23:26;5.00;;;4.63;;
15843;SDS011;50807;52.436;13.346;2023-04-29T01:23:58;4.60;;;4.03;;
15843;SDS011;50807;52.436;13.346;2023-04-29T01:24:29;4.37;;;4.07;;
15843;SDS011;50807;52.436;13.346;2023-04-29T01:25:00;4.60;;;4.20;;
15843;SDS011;50807;52.436;13.346;2023-04-29T01:25:31;4.40;;;4.10;;
15843;SDS011;50807;52.436;13.346;2023-04-29T01:26:03;4.32;;;3.92;;
15843;SDS011;50807;52.436;13.346;2023-04-29T01:26:34;4.40;;;4.10;;
15843;SDS011;50807;52.436;13.346;2023-04-29T01:27:09;4.20;;;3.90;;
15843;SDS011;50807;52.436;13.346;2023-04-29T01:27:54;4.97;;;4.43;;
15843;SDS011;50807;52.436;13.346;2023-04-29T01:28:44;4.43;;;4.05;;
15843;SDS011;50807;52.436;13.346;2023-04-29T01:29:26;4.28;;;3.88;;
15843;SDS011;50807;52.436;13.346;2023-04-29T01:30:09;4.20;;;3.90;;
15843;SDS011;50807;52.436;13.346;2023-04-29T01:30:55;4.25;;;3.95;;
15843;SDS011;50807;52.436;13.346;2023-04-29T01:31:40;4.32;;;4.03;;
15843;SDS011;50807;52.436;13.346;2023-04-29T01:32:20;4.40;;;4.00;;
15843;SDS011;50807;52.436;13.346;2023-04-29T01:33:05;4.63;;;4.30;;
15843;SDS011;50807;52.436;13.346;2023-04-29T01:33:47;4.28;;;3.97;;
15843;SDS011;50807;52.436;13.346;2023-04-29T01:34:29;4.15;;;3.53;;
15843;SDS011;50807;52.436;13.346;2023-04-29T01:35:17;4.35;;;4.05;;
15843;SDS011;50807;52.436;13.346;2023-04-29T01:36:07;4.65;;;4.25;;
15843;SDS011;50807;52.436;13.346;2023-04-29T01:36:52;3.97;;;3.67;;
15843;SDS011;50807;52.436;13.346;2023-04-29T01:37:37;4.43;;;4.13;;
15843;SDS011;50807;52.436;13.346;2023-04-29T01:38:22;4.70;;;4.30;;
15843;SDS011;50807;52.436;13.346;2023-04-29T01:39:08;3.88;;;3.55;;
15843;SDS011;50807;52.436;13.346;2023-04-29T01:39:51;4.70;;;4.30;;
15843;SDS011;50807;52.436;13.346;2023-04-29T01:40:36;4.78;;;4.38;;
15843;SDS011;50807;52.436;13.346;2023-04-29T01:41:17;4.80;;;4.40;;
15843;SDS011;50807;52.436;13.346;2023-04-29T01:42:03;5.15;;;4.68;;
15843;SDS011;50807;52.436;13.346;2023-04-29T01:42:45;4.90;;;4.50;;
15843;SDS011;50807;52.436;13.346;2023-04-29T01:43:27;5.35;;;4.95;;
15843;SDS011;50807;52.436;13.346;2023-04-29T01:44:05;4.82;;;4.43;;
15843;SDS011;50807;52.436;13.346;2023-04-29T01:44:45;4.47;;;4.07;;
15843;SDS011;50807;52.436;13.346;2023-04-29T01:45:20;4.97;;;4.53;;
15843;SDS011;50807;52.436;13.346;2023-04-29T01:45:52;5.38;;;4.90;;
15843;SDS011;50807;52.436;13.346;2023-04-29T01:46:26;4.65;;;4.25;;
15843;SDS011;50807;52.436;13.346;2023-04-29T01:46:58;4.85;;;4.45;;
15843;SDS011;50807;52.436;13.346;2023-04-29T01:47:31;5.20;;;4.80;;
15843;SDS011;50807;52.436;13.346;2023-04-29T01:48:04;5.38;;;4.95;;
15843;SDS011;50807;52.436;13.346;2023-04-29T01:48:35;5.35;;;4.95;;
15843;SDS011;50807;52.436;13.346;2023-04-29T01:49:06;5.35;;;4.95;;
15843;SDS011;50807;52.436;13.346;2023-04-29T01:49:38;5.47;;;5.00;;
15843;SDS011;50807;52.436;13.346;2023-04-29T01:50:09;5.40;;;4.90;;
15843;SDS011;50807;52.436;13.346;2023-04-29T01:50:40;6.00;;;4.85;;
15843;SDS011;50807;52.436;13.346;2023-04-29T01:51:12;5.97;;;5.47;;
15843;SDS011;50807;52.436;13.346;2023-04-29T01:51:43;5.70;;;5.20;;
15843;SDS011;50807;52.436;13.346;2023-04-29T01:52:14;5.50;;;5.10;;
15843;SDS011;50807;52.436;13.346;2023-04-29T01:52:46;5.15;;;4.72;;
15843;SDS011;50807;52.436;13.346;2023-04-29T01:53:17;6.28;;;5.78;;
15843;SDS011;50807;52.436;13.346;2023-04-29T01:53:49;5.10;;;4.70;;
15843;SDS011;50807;52.436;13.346;2023-04-29T01:54:21;5.22;;;4.82;;
15843;SDS011;50807;52.436;13.346;2023-04-29T01:54:52;5.30;;;4.83;;
15843;SDS011;50807;52.436;13.346;2023-04-29T01:55:23;6.10;;;5.50;;
15843;SDS011;50807;52.436;13.346;2023-04-29T01:55:55;5.82;;;5.32;;
15843;SDS011;50807;52.436;13.346;2023-04-29T01:56:26;5.68;;;5.18;;
15843;SDS011;50807;52.436;13.346;2023-04-29T01:56:57;6.00;;;5.50;;
15843;SDS011;50807;52.436;13.346;2023-04-29T01:57:29;5.63;;;5.22;;
15843;SDS011;50807;52.436;13.346;2023-04-29T01:58:02;5.70;;;5.22;;
15843;SDS011;50807;52.436;13.346;2023-04-29T01:58:34;4.95;;;4.60;;
15843;SDS011;50807;52.436;13.346;2023-04-29T01:59:04;5.70;;;5.20;;
15843;SDS011;50807;52.436;13.346;2023-04-29T01:59:37;5.43;;;5.03;;
15843;SDS011;50807;52.436;13.346;2023-04-29T02:00:11;5.57;;;5.13;;
15843;SDS011;50807;52.436;13.346;2023-04-29T02:00:42;5.30;;;4.90;;
15843;SDS011;50807;52.436;13.346;2023-04-29T02:01:13;5.40;;;4.90;;
15843;SDS011;50807;52.436;13.346;2023-04-29T02:01:45;5.78;;;5.28;;
15843;SDS011;50807;52.436;13.346;2023-04-29T02:02:16;4.97;;;4.57;;
15843;SDS011;50807;52.436;13.346;2023-04-29T02:02:50;5.45;;;5.05;;
15843;SDS011;50807;52.436;13.346;2023-04-29T02:03:21;5.38;;;4.97;;
15843;SDS011;50807;52.436;13.346;2023-04-29T02:03:52;5.50;;;5.00;;
15843;SDS011;50807;52.436;13.346;2023-04-29T02:04:23;5.10;;;4.70;;
15843;SDS011;50807;52.436;13.346;2023-04-29T02:04:56;5.80;;;5.28;;
15843;SDS011;50807;52.436;13.346;2023-04-29T02:05:27;5.20;;;4.83;;
15843;SDS011;50807;52.436;13.346;2023-04-29T02:06:01;5.13;;;4.72;;
15843;SDS011;50807;52.436;13.346;2023-04-29T02:06:33;5.22;;;4.80;;
15843;SDS011;50807;52.436;13.346;2023-04-29T02:07:04;5.33;;;4.87;;
15843;SDS011;50807;52.436;13.346;2023-04-29T02:07:35;6.15;;;5.60;;
15843;SDS011;50807;52.436;13.346;2023-04-29T02:08:06;6.17;;;5.07;;
15843;SDS011;50807;52.436;13.346;2023-04-29T02:08:38;5.45;;;5.05;;
15843;SDS011;50807;52.436;13.346;2023-04-29T02:09:10;5.40;;;5.00;;
15843;SDS011;50807;52.436;13.346;2023-04-29T02:09:41;5.35;;;4.95;;
15843;SDS011;50807;52.436;13.346;2023-04-29T02:10:13;5.63;;;5.18;;
15843;SDS011;50807;52.436;13.346;2023-04-29T02:10:52;5.75;;;5.25;;
15843;SDS011;50807;52.436;13.346;2023-04-29T02:11:23;5.82;;;5.40;;
15843;SDS011;50807;52.436;13.346;2023-04-29T02:11:56;5.05;;;4.70;;
15843;SDS011;50807;52.436;13.346;2023-04-29T02:12:26;5.60;;;5.10;;
15843;SDS011;50807;52.436;13.346;2023-04-29T02:12:57;5.63;;;5.13;;
15843;SDS011;50807;52.436;13.346;2023-04-29T02:13:30;6.22;;;5.72;;
15843;SDS011;50807;52.436;13.346;2023-04-29T02:14:02;5.78;;;5.28;;
15843;SDS011;50807;52.436;13.346;2023-04-29T02:14:32;6.23;;;5.33;;
15843;SDS011;50807;52.436;13.346;2023-04-29T02:15:05;5.75;;;5.35;;
15843;SDS011;50807;52.436;13.346;2023-04-29T02:15:37;5.65;;;5.15;;
15843;SDS011;50807;52.436;13.346;2023-04-29T02:16:08;5.53;;;5.13;;
15843;SDS011;50807;52.436;13.346;2023-04-29T02:16:42;5.57;;;5.18;;
15843;SDS011;50807;52.436;13.346;2023-04-29T02:17:14;5.82;;;5.32;;
15843;SDS011;50807;52.436;13.346;2023-04-29T02:17:45;6.13;;;5.43;;
15843;SDS011;50807;52.436;13.346;2023-04-29T02:18:16;6.40;;;5.90;;
15843;SDS011;50807;52.436;13.346;2023-04-29T02:18:48;6.18;;;5.65;;
15843;SDS011;50807;52.436;13.346;2023-04-29T02:19:19;5.47;;;5.07;;
15843;SDS011;50807;52.436;13.346;2023-04-29T02:19:50;5.60;;;5.13;;
15843;SDS011;50807;52.436;13.346;2023-04-29T02:20:23;6.07;;;5.57;;
15843;SDS011;50807;52.436;13.346;2023-04-29T02:20:58;5.70;;;5.20;;
15843;SDS011;50807;52.436;13.346;2023-04-29T02:21:30;5.75;;;5.25;;
15843;SDS011;50807;52.436;13.346;2023-04-29T02:22:04;5.32;;;4.93;;
15843;SDS011;50807;52.436;13.346;2023-04-29T02:22:35;6.07;;;5.57;;
15843;SDS011;50807;52.436;13.346;2023-04-29T02:23:06;6.00;;;5.50;;
15843;SDS011;50807;52.436;13.346;2023-04-29T02:23:38;5.90;;;5.50;;
15843;SDS011;50807;52.436;13.346;2023-04-29T02:24:10;5.93;;;5.40;;
15843;SDS011;50807;52.436;13.346;2023-04-29T02:24:41;6.05;;;5.65;;
15843;SDS011;50807;52.436;13.346;2023-04-29T02:25:12;5.75;;;5.35;;
15843;SDS011;50807;52.436;13.346;2023-04-29T02:25:43;6.28;;;5.75;;
15843;SDS011;50807;52.436;13.346;2023-04-29T02:26:14;5.63;;;5.13;;
15843;SDS011;50807;52.436;13.346;2023-04-29T02:26:46;6.10;;;5.60;;
15843;SDS011;50807;52.436;13.346;2023-04-29T02:27:17;6.43;;;5.50;;
15843;SDS011;50807;52.436;13.346;2023-04-29T02:27:48;6.27;;;5.77;;
15843;SDS011;50807;52.436;13.346;2023-04-29T02:28:20;5.93;;;5.53;;
15843;SDS011;50807;52.436;13.346;2023-04-29T02:28:52;6.18;;;5.68;;
15843;SDS011;50807;52.436;13.346;2023-04-29T02:29:25;6.55;;;6.05;;
15843;SDS011;50807;52.436;13.346;2023-04-29T02:29:58;5.82;;;5.32;;
15843;SDS011;50807;52.436;13.346;2023-04-29T02:30:29;6.33;;;5.83;;
15843;SDS011;50807;52.436;13.346;2023-04-29T02:31:00;6.50;;;6.00;;
15843;SDS011;50807;52.436;13.346;2023-04-29T02:31:32;6.43;;;5.93;;
15843;SDS011;50807;52.436;13.346;2023-04-29T02:32:03;6.20;;;5.70;;
15843;SDS011;50807;52.436;13.346;2023-04-29T02:32:35;6.43;;;5.85;;
15843;SDS011;50807;52.436;13.346;2023-04-29T02:33:08;6.90;;;6.35;;
15843;SDS011;50807;52.436;13.346;2023-04-29T02:33:39;6.03;;;5.63;;
15843;SDS011;50807;52.436;13.346;2023-04-29T02:34:10;6.07;;;5.57;;
15843;SDS011;50807;52.436;13.346;2023-04-29T02:34:44;6.25;;;5.70;;
15843;SDS011;50807;52.436;13.346;2023-04-29T02:35:15;4.75;;;4.43;;
15843;SDS011;50807;52.436;13.346;2023-04-29T02:35:46;6.13;;;5.63;;
15843;SDS011;50807;52.436;13.346;2023-04-29T02:36:18;5.28;;;4.88;;
15843;SDS011;50807;52.436;13.346;2023-04-29T02:36:49;6.63;;;6.00;;
15843;SDS011;50807;52.436;13.346;2023-04-29T02:37:19;6.37;;;5.90;;
15843;SDS011;50807;52.436;13.346;2023-04-29T02:37:53;6.35;;;5.88;;
15843;SDS011;50807;52.436;13.346;2023-04-29T02:38:24;6.35;;;5.78;;
15843;SDS011;50807;52.436;13.346;2023-04-29T02:38:55;6.77;;;6.20;;
15843;SDS011;50807;52.436;13.346;2023-04-29T02:39:28;6.45;;;5.95;;
15843;SDS011;50807;52.436;13.346;2023-04-29T02:40:00;6.28;;;5.75;;
15843;SDS011;50807;52.436;13.346;2023-04-29T02:40:31;6.40;;;5.80;;
15843;SDS011;50807;52.436;13.346;2023-04-29T02:41:03;6.90;;;6.30;;
15843;SDS011;50807;52.436;13.346;2023-04-29T02:41:34;6.53;;;6.03;;
15843;SDS011;50807;52.436;13.346;2023-04-29T02:42:05;6.60;;;6.00;;
15843;SDS011;50807;52.436;13.346;2023-04-29T02:42:37;7.07;;;6.38;;
15843;SDS011;50807;52.436;13.346;2023-04-29T02:43:08;6.63;;;6.10;;
15843;SDS011;50807;52.436;13.346;2023-04-29T02:43:39;6.43;;;5.88;;
15843;SDS011;50807;52.436;13.346;2023-04-29T02:44:10;6.32;;;5.82;;
15843;SDS011;50807;52.436;13.346;2023-04-29T02:44:41;6.45;;;5.95;;
15843;SDS011;50807;52.436;13.346;2023-04-29T02:45:13;6.82;;;6.32;;
15843;SDS011;50807;52.436;13.346;2023-04-29T02:45:45;7.07;;;6.47;;
15843;SDS011;50807;52.436;13.346;2023-04-29T02:46:16;7.00;;;6.50;;
15843;SDS011;50807;52.436;13.346;2023-04-29T02:46:48;6.75;;;6.25;;
15843;SDS011;50807;52.436;13.346;2023-04-29T02:47:19;7.47;;;6.87;;
15843;SDS011;50807;52.436;13.346;2023-04-29T02:47:49;6.82;;;6.22;;
15843;SDS011;50807;52.436;13.346;2023-04-29T02:48:21;7.00;;;6.40;;
15843;SDS011;50807;52.436;13.346;2023-04-29T02:48:52;7.50;;;6.83;;
15843;SDS011;50807;52.436;13.346;2023-04-29T02:49:23;7.30;;;6.70;;
15843;SDS011;50807;52.436;13.346;2023-04-29T02:49:55;6.80;;;6.30;;
15843;SDS011;50807;52.436;13.346;2023-04-29T02:50:25;6.70;;;6.10;;
15843;SDS011;50807;52.436;13.346;2023-04-29T02:50:57;6.97;;;6.40;;
15843;SDS011;50807;52.436;13.346;2023-04-29T02:51:29;7.47;;;6.88;;
15843;SDS011;50807;52.436;13.346;2023-04-29T02:52:00;6.53;;;6.03;;
15843;SDS011;50807;52.436;13.346;2023-04-29T02:52:31;6.90;;;6.27;;
15843;SDS011;50807;52.436;13.346;2023-04-29T02:53:02;7.40;;;6.80;;
15843;SDS011;50807;52.436;13.346;2023-04-29T02:53:33;6.97;;;6.37;;
15843;SDS011;50807;52.436;13.346;2023-04-29T02:54:04;7.13;;;6.63;;
15843;SDS011;50807;52.436;13.346;2023-04-29T02:54:39;7.30;;;6.70;;
15843;SDS011;50807;52.436;13.346;2023-04-29T02:55:10;7.47;;;6.88;;
15843;SDS011;50807;52.436;13.346;2023-04-29T02:55:41;6.80;;;6.23;;
15843;SDS011;50807;52.436;13.346;2023-04-29T02:56:13;9.32;;;7.07;;
15843;SDS011;50807;52.436;13.346;2023-04-29T02:56:44;7.63;;;6.97;;
15843;SDS011;50807;52.436;13.346;2023-04-29T02:57:14;7.27;;;6.67;;
15843;SDS011;50807;52.436;13.346;2023-04-29T02:57:47;7.72;;;7.13;;
15843;SDS011;50807;52.436;13.346;2023-04-29T02:58:18;7.17;;;6.57;;
15843;SDS011;50807;52.436;13.346;2023-04-29T02:58:49;7.37;;;6.77;;
15843;SDS011;50807;52.436;13.346;2023-04-29T02:59:20;7.20;;;6.63;;
15843;SDS011;50807;52.436;13.346;2023-04-29T02:59:51;7.07;;;6.57;;
15843;SDS011;50807;52.436;13.346;2023-04-29T03:00:22;6.90;;;6.37;;
15843;SDS011;50807;52.436;13.346;2023-04-29T03:00:54;7.68;;;6.63;;
15843;SDS011;50807;52.436;13.346;2023-04-29T03:01:25;7.32;;;6.80;;
15843;SDS011;50807;52.436;13.346;2023-04-29T03:01:56;6.80;;;6.30;;
15843;SDS011;50807;52.436;13.346;2023-04-29T03:02:28;7.43;;;6.82;;
15843;SDS011;50807;52.436;13.346;2023-04-29T03:02:58;6.73;;;6.23;;
15843;SDS011;50807;52.436;13.346;2023-04-29T03:03:30;7.22;;;6.63;;
15843;SDS011;50807;52.436;13.346;2023-04-29T03:04:02;6.97;;;6.38;;
15843;SDS011;50807;52.436;13.346;2023-04-29T03:04:33;7.13;;;6.53;;
15843;SDS011;50807;52.436;13.346;2023-04-29T03:05:05;6.72;;;6.22;;
15843;SDS011;50807;52.436;13.346;2023-04-29T03:05:37;6.55;;;6.05;;
15843;SDS011;50807;52.436;13.346;2023-04-29T03:06:08;8.00;;;7.33;;
15843;SDS011;50807;52.436;13.346;2023-04-29T03:06:39;7.17;;;6.60;;
15843;SDS011;50807;52.436;13.346;2023-04-29T03:07:10;7.32;;;6.82;;
15843;SDS011;50807;52.436;13.346;2023-04-29T03:07:42;7.88;;;7.28;;
15843;SDS011;50807;52.436;13.346;2023-04-29T03:08:16;7.18;;;6.63;;
15843;SDS011;50807;52.436;13.346;2023-04-29T03:08:48;7.15;;;6.65;;
15843;SDS011;50807;52.436;13.346;2023-04-29T03:09:19;8.13;;;7.43;;
15843;SDS011;50807;52.436;13.346;2023-04-29T03:09:52;7.35;;;6.80;;
15843;SDS011;50807;52.436;13.346;2023-04-29T03:10:24;7.22;;;6.72;;
15843;SDS011;50807;52.436;13.346;2023-04-29T03:10:55;7.53;;;6.87;;
15843;SDS011;50807;52.436;13.346;2023-04-29T03:11:26;7.37;;;6.87;;
15843;SDS011;50807;52.436;13.346;2023-04-29T03:11:58;7.03;;;6.53;;
15843;SDS011;50807;52.436;13.346;2023-04-29T03:12:28;6.93;;;6.43;;
15843;SDS011;50807;52.436;13.346;2023-04-29T03:12:59;7.63;;;7.03;;
15843;SDS011;50807;52.436;13.346;2023-04-29T03:13:31;7.57;;;6.93;;
15843;SDS011;50807;52.436;13.346;2023-04-29T03:14:02;7.63;;;7.03;;
15843;SDS011;50807;52.436;13.346;2023-04-29T03:14:33;7.53;;;6.90;;
15843;SDS011;50807;52.436;13.346;2023-04-29T03:15:06;7.57;;;6.88;;
15843;SDS011;50807;52.436;13.346;2023-04-29T03:15:39;7.32;;;6.82;;
15843;SDS011;50807;52.436;13.346;2023-04-29T03:16:10;7.00;;;6.50;;
15843;SDS011;50807;52.436;13.346;2023-04-29T03:16:42;7.40;;;6.90;;